ELY544 LGAV-LLBG
Flight info
| Callsign | ELY544 |
|---|---|
| Flight time | 1h 28m |
| Altitude | 35000 |
| Route | KEA N132 TUXEM UT514 PEXAN UM601 MADEX UN132 KUPIS UN134 VANZA DCT PIKOG L609 ZUKKO |
| Aircraft | B738/M-SDE2E3FGHIJ1LORVWXY/LB1 |
Departure
| Time | 2026-05-04 12:49 |
|---|---|
| Airport | Athens Eleftherios Venizelos International Airport (LGAV) |
Arrival
| Time | 2026-05-04 14:17 |
|---|---|
| Airport | Ben Gurion International Airport (LLBG) |
| Time | Latitude | Longitude | Altitude | Speed | Heading |
|---|---|---|---|---|---|
| 2026-05-04 12:32 | 37.93376 | 23.94607 | 286 ft | 0 kts | 307° |
| 2026-05-04 12:41 | 37.93375 | 23.94608 | 286 ft | 1 kts | 307° |
| 2026-05-04 12:41 | 37.93367 | 23.94622 | 286 ft | 3 kts | 307° |
| 2026-05-04 12:41 | 37.93355 | 23.94643 | 286 ft | 3 kts | 307° |
| 2026-05-04 12:42 | 37.93343 | 23.94663 | 291 ft | 3 kts | 302° |
| 2026-05-04 12:42 | 37.93334 | 23.94685 | 286 ft | 3 kts | 282° |
| 2026-05-04 12:42 | 37.93333 | 23.94708 | 287 ft | 3 kts | 246° |
| 2026-05-04 12:42 | 37.93341 | 23.94722 | 296 ft | 1 kts | 217° |
| 2026-05-04 12:43 | 37.93342 | 23.94723 | 296 ft | 1 kts | 217° |
| 2026-05-04 12:45 | 37.93333 | 23.94714 | 288 ft | 6 kts | 217° |
| 2026-05-04 12:45 | 37.93270 | 23.94655 | 287 ft | 13 kts | 217° |
| 2026-05-04 12:45 | 37.93192 | 23.94602 | 284 ft | 13 kts | 192° |
| 2026-05-04 12:46 | 37.93106 | 23.94601 | 288 ft | 12 kts | 155° |
| 2026-05-04 12:46 | 37.93043 | 23.94672 | 284 ft | 12 kts | 160° |
| 2026-05-04 12:46 | 37.92970 | 23.94632 | 284 ft | 12 kts | 217° |
| 2026-05-04 12:46 | 37.92905 | 23.94570 | 282 ft | 12 kts | 217° |
| 2026-05-04 12:47 | 37.92841 | 23.94509 | 281 ft | 11 kts | 217° |
| 2026-05-04 12:47 | 37.92758 | 23.94430 | 280 ft | 17 kts | 217° |
| 2026-05-04 12:47 | 37.92662 | 23.94338 | 284 ft | 17 kts | 217° |
| 2026-05-04 12:47 | 37.92587 | 23.94271 | 279 ft | 9 kts | 198° |
| 2026-05-04 12:48 | 37.92550 | 23.94300 | 278 ft | 1 kts | 127° |
| 2026-05-04 12:48 | 37.92537 | 23.94323 | 278 ft | 9 kts | 127° |
| 2026-05-04 12:48 | 37.92483 | 23.94414 | 281 ft | 14 kts | 121° |
| 2026-05-04 12:48 | 37.92521 | 23.94489 | 278 ft | 11 kts | 37° |
| 2026-05-04 12:49 | 37.92694 | 23.94652 | 283 ft | 68 kts | 37° |
| 2026-05-04 12:49 | 37.93284 | 23.95212 | 289 ft | 141 kts | 37° |
| 2026-05-04 12:49 | 37.94214 | 23.96107 | 488 ft | 188 kts | 38° |
| 2026-05-04 12:49 | 37.95350 | 23.97161 | 1048 ft | 215 kts | 37° |
| 2026-05-04 12:50 | 37.96503 | 23.98290 | 2164 ft | 203 kts | 37° |
| 2026-05-04 12:50 | 37.97554 | 23.99490 | 2947 ft | 209 kts | 41° |
| 2026-05-04 12:50 | 37.98692 | 24.00795 | 3183 ft | 230 kts | 33° |
| 2026-05-04 12:50 | 38.00020 | 24.01948 | 3761 ft | 237 kts | 30° |
| 2026-05-04 12:51 | 38.01403 | 24.03144 | 4484 ft | 244 kts | 32° |
| 2026-05-04 12:51 | 38.02712 | 24.04557 | 5169 ft | 258 kts | 52° |
| 2026-05-04 12:51 | 38.03319 | 24.06763 | 5725 ft | 276 kts | 85° |
| 2026-05-04 12:51 | 38.03000 | 24.09196 | 6449 ft | 285 kts | 112° |
| 2026-05-04 12:52 | 38.01887 | 24.11283 | 7182 ft | 290 kts | 136° |
| 2026-05-04 12:52 | 38.00316 | 24.12904 | 7916 ft | 293 kts | 144° |
| 2026-05-04 12:52 | 37.98637 | 24.14403 | 8630 ft | 297 kts | 145° |
| 2026-05-04 12:52 | 37.96914 | 24.15888 | 9360 ft | 302 kts | 145° |
| 2026-05-04 12:53 | 37.95168 | 24.17395 | 10105 ft | 305 kts | 144° |
| 2026-05-04 12:53 | 37.93373 | 24.18956 | 10454 ft | 323 kts | 144° |
| 2026-05-04 12:53 | 37.91462 | 24.20635 | 10641 ft | 344 kts | 143° |
| 2026-05-04 12:53 | 37.89493 | 24.22374 | 11088 ft | 355 kts | 143° |
| 2026-05-04 12:54 | 37.87455 | 24.24182 | 11745 ft | 358 kts | 143° |
| 2026-05-04 12:54 | 37.85396 | 24.26012 | 12482 ft | 360 kts | 143° |
| 2026-05-04 12:54 | 37.83336 | 24.27845 | 13183 ft | 363 kts | 143° |
| 2026-05-04 12:54 | 37.81264 | 24.29692 | 13863 ft | 366 kts | 143° |
| 2026-05-04 12:55 | 37.79170 | 24.31557 | 14491 ft | 369 kts | 143° |
| 2026-05-04 12:55 | 37.77054 | 24.33396 | 15172 ft | 369 kts | 144° |
| 2026-05-04 12:55 | 37.74926 | 24.35226 | 15853 ft | 370 kts | 144° |
| 2026-05-04 12:55 | 37.72793 | 24.37071 | 16500 ft | 372 kts | 144° |
| 2026-05-04 12:56 | 37.70686 | 24.38911 | 17118 ft | 374 kts | 144° |
| 2026-05-04 12:56 | 37.68516 | 24.40822 | 17750 ft | 377 kts | 144° |
| 2026-05-04 12:56 | 37.66391 | 24.42702 | 18344 ft | 379 kts | 144° |
| 2026-05-04 12:56 | 37.64227 | 24.44624 | 18872 ft | 382 kts | 144° |
| 2026-05-04 12:57 | 37.62044 | 24.46564 | 19363 ft | 385 kts | 144° |
| 2026-05-04 12:57 | 37.59847 | 24.48519 | 19852 ft | 388 kts | 144° |
| 2026-05-04 12:57 | 37.57625 | 24.50494 | 20346 ft | 391 kts | 144° |
| 2026-05-04 12:57 | 37.55391 | 24.52479 | 20845 ft | 394 kts | 144° |
| 2026-05-04 12:58 | 37.53139 | 24.54479 | 21335 ft | 397 kts | 143° |
| 2026-05-04 12:58 | 37.50876 | 24.56487 | 21815 ft | 400 kts | 143° |
| 2026-05-04 12:58 | 37.48588 | 24.58516 | 22305 ft | 402 kts | 143° |
| 2026-05-04 12:58 | 37.46405 | 24.60715 | 22750 ft | 404 kts | 134° |
| 2026-05-04 12:59 | 37.44608 | 24.63438 | 23207 ft | 405 kts | 122° |
| 2026-05-04 12:59 | 37.43164 | 24.66477 | 23673 ft | 406 kts | 118° |
| 2026-05-04 12:59 | 37.41753 | 24.69577 | 24028 ft | 409 kts | 118° |
| 2026-05-04 12:59 | 37.40336 | 24.72703 | 24325 ft | 414 kts | 118° |
| 2026-05-04 13:00 | 37.38901 | 24.75855 | 24636 ft | 418 kts | 118° |
| 2026-05-04 13:00 | 37.37445 | 24.79034 | 24963 ft | 421 kts | 118° |
| 2026-05-04 13:00 | 37.36081 | 24.81995 | 25251 ft | 424 kts | 118° |
| 2026-05-04 13:00 | 37.34617 | 24.85162 | 25557 ft | 425 kts | 118° |
| 2026-05-04 13:01 | 37.33126 | 24.88378 | 25865 ft | 426 kts | 118° |
| 2026-05-04 13:01 | 37.31682 | 24.91487 | 26160 ft | 426 kts | 118° |
| 2026-05-04 13:01 | 37.30269 | 24.94523 | 26439 ft | 427 kts | 118° |
| 2026-05-04 13:01 | 37.28834 | 24.97597 | 26715 ft | 427 kts | 118° |
| 2026-05-04 13:02 | 37.27324 | 25.00825 | 26997 ft | 428 kts | 118° |
| 2026-05-04 13:02 | 37.25819 | 25.04036 | 27269 ft | 429 kts | 118° |
| 2026-05-04 13:02 | 37.24479 | 25.06894 | 27510 ft | 430 kts | 118° |
| 2026-05-04 13:02 | 37.22959 | 25.10126 | 27772 ft | 431 kts | 118° |
| 2026-05-04 13:03 | 37.21433 | 25.13368 | 28039 ft | 431 kts | 118° |
| 2026-05-04 13:03 | 37.19907 | 25.16604 | 28289 ft | 432 kts | 118° |
| 2026-05-04 13:03 | 37.18373 | 25.19857 | 28548 ft | 433 kts | 118° |
| 2026-05-04 13:03 | 37.16832 | 25.23119 | 28796 ft | 434 kts | 118° |
| 2026-05-04 13:04 | 37.15290 | 25.26379 | 29038 ft | 435 kts | 118° |
| 2026-05-04 13:04 | 37.13743 | 25.29651 | 29286 ft | 436 kts | 118° |
| 2026-05-04 13:04 | 37.12196 | 25.32916 | 29511 ft | 436 kts | 118° |
| 2026-05-04 13:04 | 37.10643 | 25.36191 | 29739 ft | 437 kts | 118° |
| 2026-05-04 13:05 | 37.09111 | 25.39439 | 29964 ft | 439 kts | 118° |
| 2026-05-04 13:05 | 37.07540 | 25.42774 | 30186 ft | 440 kts | 118° |
| 2026-05-04 13:05 | 37.06003 | 25.46034 | 30377 ft | 440 kts | 118° |
| 2026-05-04 13:05 | 37.04444 | 25.49331 | 30545 ft | 439 kts | 118° |
| 2026-05-04 13:06 | 37.02886 | 25.52618 | 30729 ft | 439 kts | 118° |
| 2026-05-04 13:06 | 37.01321 | 25.55915 | 30870 ft | 439 kts | 118° |
| 2026-05-04 13:06 | 36.99760 | 25.59201 | 31009 ft | 439 kts | 118° |
| 2026-05-04 13:06 | 36.98194 | 25.62490 | 31152 ft | 440 kts | 118° |
| 2026-05-04 13:07 | 36.96621 | 25.65794 | 31294 ft | 445 kts | 119° |
| 2026-05-04 13:07 | 36.95047 | 25.69095 | 31458 ft | 448 kts | 119° |
| 2026-05-04 13:07 | 36.93443 | 25.72454 | 31628 ft | 452 kts | 119° |
| 2026-05-04 13:07 | 36.91825 | 25.75840 | 31802 ft | 455 kts | 119° |
| 2026-05-04 13:08 | 36.90195 | 25.79246 | 31984 ft | 457 kts | 119° |
| 2026-05-04 13:08 | 36.88556 | 25.82670 | 32176 ft | 460 kts | 119° |
| 2026-05-04 13:08 | 36.86906 | 25.86110 | 32365 ft | 462 kts | 119° |
| 2026-05-04 13:08 | 36.85253 | 25.89555 | 32562 ft | 464 kts | 119° |
| 2026-05-04 13:09 | 36.83584 | 25.93028 | 32762 ft | 466 kts | 119° |
| 2026-05-04 13:09 | 36.81910 | 25.96508 | 32946 ft | 468 kts | 119° |
| 2026-05-04 13:09 | 36.80231 | 25.99996 | 33144 ft | 470 kts | 119° |
| 2026-05-04 13:09 | 36.78544 | 26.03496 | 33325 ft | 472 kts | 119° |
| 2026-05-04 13:10 | 36.76842 | 26.07024 | 33520 ft | 474 kts | 119° |
| 2026-05-04 13:10 | 36.75141 | 26.10547 | 33706 ft | 476 kts | 119° |
| 2026-05-04 13:10 | 36.73428 | 26.14089 | 33896 ft | 477 kts | 119° |
| 2026-05-04 13:10 | 36.71711 | 26.17638 | 34075 ft | 479 kts | 120° |
| 2026-05-04 13:11 | 36.70010 | 26.21149 | 34225 ft | 480 kts | 120° |
| 2026-05-04 13:11 | 36.68256 | 26.24764 | 34378 ft | 482 kts | 120° |
| 2026-05-04 13:11 | 36.66544 | 26.28291 | 34531 ft | 483 kts | 120° |
| 2026-05-04 13:11 | 36.64801 | 26.31877 | 34681 ft | 484 kts | 120° |
| 2026-05-04 13:12 | 36.63057 | 26.35462 | 34837 ft | 485 kts | 120° |
| 2026-05-04 13:12 | 36.61308 | 26.39053 | 35033 ft | 484 kts | 120° |
| 2026-05-04 13:12 | 36.59555 | 26.42648 | 35052 ft | 489 kts | 120° |
| 2026-05-04 13:13 | 36.56004 | 26.49920 | 35060 ft | 496 kts | 120° |
| 2026-05-04 13:13 | 36.52391 | 26.57303 | 35063 ft | 502 kts | 120° |
| 2026-05-04 13:14 | 36.48730 | 26.64766 | 35058 ft | 508 kts | 120° |
| 2026-05-04 13:14 | 36.45028 | 26.72296 | 35057 ft | 512 kts | 120° |
| 2026-05-04 13:15 | 36.41300 | 26.79863 | 35050 ft | 515 kts | 121° |
| 2026-05-04 13:15 | 36.37574 | 26.87406 | 35038 ft | 517 kts | 121° |
| 2026-05-04 13:16 | 36.33814 | 26.95005 | 35029 ft | 517 kts | 121° |
| 2026-05-04 13:16 | 36.30045 | 27.02601 | 35028 ft | 516 kts | 121° |
| 2026-05-04 13:17 | 36.26285 | 27.10166 | 35031 ft | 515 kts | 121° |
| 2026-05-04 13:17 | 36.22515 | 27.17731 | 35028 ft | 515 kts | 121° |
| 2026-05-04 13:18 | 36.18747 | 27.25279 | 35025 ft | 516 kts | 121° |
| 2026-05-04 13:18 | 36.14971 | 27.32824 | 35024 ft | 516 kts | 121° |
| 2026-05-04 13:19 | 36.11180 | 27.40381 | 35024 ft | 517 kts | 121° |
| 2026-05-04 13:19 | 36.07387 | 27.47928 | 35017 ft | 517 kts | 121° |
| 2026-05-04 13:20 | 36.03581 | 27.55482 | 35007 ft | 518 kts | 121° |
| 2026-05-04 13:20 | 35.99797 | 27.62975 | 35004 ft | 518 kts | 122° |
| 2026-05-04 13:21 | 35.95976 | 27.70528 | 34999 ft | 518 kts | 122° |
| 2026-05-04 13:21 | 35.92152 | 27.78067 | 34993 ft | 519 kts | 122° |
| 2026-05-04 13:22 | 35.88317 | 27.85612 | 34985 ft | 519 kts | 122° |
| 2026-05-04 13:22 | 35.84475 | 27.93155 | 34981 ft | 520 kts | 122° |
| 2026-05-04 13:23 | 35.80619 | 28.00709 | 34980 ft | 520 kts | 122° |
| 2026-05-04 13:23 | 35.76762 | 28.08249 | 34975 ft | 520 kts | 122° |
| 2026-05-04 13:24 | 35.72923 | 28.15736 | 34975 ft | 520 kts | 122° |
| 2026-05-04 13:24 | 35.69056 | 28.23260 | 34967 ft | 520 kts | 122° |
| 2026-05-04 13:25 | 35.63252 | 28.34526 | 34964 ft | 519 kts | 122° |
| 2026-05-04 13:25 | 35.59384 | 28.42012 | 34962 ft | 519 kts | 123° |
| 2026-05-04 13:26 | 35.55508 | 28.49505 | 34959 ft | 520 kts | 123° |
| 2026-05-04 13:26 | 35.51616 | 28.57002 | 34956 ft | 521 kts | 123° |
| 2026-05-04 13:27 | 35.47709 | 28.64511 | 34950 ft | 522 kts | 123° |
| 2026-05-04 13:27 | 35.43796 | 28.72020 | 34947 ft | 522 kts | 123° |
| 2026-05-04 13:28 | 35.39911 | 28.79477 | 34949 ft | 522 kts | 123° |
| 2026-05-04 13:28 | 35.35992 | 28.86968 | 34939 ft | 522 kts | 123° |
| 2026-05-04 13:29 | 35.32695 | 28.93241 | 34939 ft | 523 kts | 123° |
| 2026-05-04 13:29 | 35.28782 | 29.00681 | 34936 ft | 523 kts | 123° |
| 2026-05-04 13:30 | 35.24835 | 29.08175 | 34933 ft | 523 kts | 124° |
| 2026-05-04 13:30 | 35.20887 | 29.15659 | 34931 ft | 524 kts | 124° |
| 2026-05-04 13:31 | 35.16931 | 29.23141 | 34929 ft | 524 kts | 124° |
| 2026-05-04 13:31 | 35.12966 | 29.30622 | 34928 ft | 525 kts | 124° |
| 2026-05-04 13:32 | 35.08990 | 29.38108 | 34922 ft | 526 kts | 124° |
| 2026-05-04 13:32 | 35.05002 | 29.45601 | 34925 ft | 526 kts | 124° |
| 2026-05-04 13:33 | 35.01003 | 29.53100 | 34923 ft | 527 kts | 125° |
| 2026-05-04 13:33 | 34.97025 | 29.60542 | 34926 ft | 527 kts | 125° |
| 2026-05-04 13:34 | 34.93010 | 29.68039 | 34917 ft | 528 kts | 125° |
| 2026-05-04 13:34 | 34.88981 | 29.75546 | 34919 ft | 529 kts | 125° |
| 2026-05-04 13:35 | 34.82920 | 29.86809 | 34915 ft | 530 kts | 126° |
| 2026-05-04 13:36 | 34.78877 | 29.94304 | 34919 ft | 530 kts | 126° |
| 2026-05-04 13:36 | 34.74855 | 30.01767 | 34913 ft | 531 kts | 125° |
| 2026-05-04 13:37 | 34.70940 | 30.09397 | 34917 ft | 532 kts | 124° |
| 2026-05-04 13:37 | 34.67080 | 30.17084 | 34917 ft | 533 kts | 124° |
| 2026-05-04 13:38 | 34.63196 | 30.24769 | 34917 ft | 534 kts | 124° |
| 2026-05-04 13:38 | 34.59287 | 30.32434 | 34916 ft | 534 kts | 125° |
| 2026-05-04 13:39 | 34.55363 | 30.40091 | 34914 ft | 535 kts | 125° |
| 2026-05-04 13:39 | 34.51425 | 30.47762 | 34915 ft | 535 kts | 125° |
| 2026-05-04 13:40 | 34.47484 | 30.55423 | 34914 ft | 536 kts | 125° |
| 2026-05-04 13:40 | 34.43532 | 30.63093 | 34918 ft | 537 kts | 125° |
| 2026-05-04 13:41 | 34.39569 | 30.70766 | 34917 ft | 538 kts | 126° |
| 2026-05-04 13:41 | 34.35619 | 30.78399 | 34919 ft | 538 kts | 126° |
| 2026-05-04 13:42 | 34.29640 | 30.89921 | 34914 ft | 540 kts | 126° |
| 2026-05-04 13:42 | 34.25642 | 30.97603 | 34921 ft | 540 kts | 126° |
| 2026-05-04 13:43 | 34.21626 | 31.05304 | 34918 ft | 541 kts | 126° |
| 2026-05-04 13:43 | 34.17605 | 31.12999 | 34918 ft | 542 kts | 126° |
| 2026-05-04 13:44 | 34.13576 | 31.20692 | 34920 ft | 543 kts | 127° |
| 2026-05-04 13:44 | 34.09532 | 31.28399 | 34919 ft | 543 kts | 127° |
| 2026-05-04 13:45 | 34.05487 | 31.36090 | 34926 ft | 544 kts | 127° |
| 2026-05-04 13:45 | 34.01424 | 31.43797 | 34920 ft | 544 kts | 127° |
| 2026-05-04 13:46 | 33.97361 | 31.51490 | 34917 ft | 544 kts | 127° |
| 2026-05-04 13:46 | 33.93314 | 31.59136 | 34922 ft | 545 kts | 127° |
| 2026-05-04 13:47 | 33.89235 | 31.66825 | 34922 ft | 545 kts | 127° |
| 2026-05-04 13:47 | 33.85148 | 31.74513 | 34924 ft | 545 kts | 127° |
| 2026-05-04 13:48 | 33.81058 | 31.82191 | 34924 ft | 545 kts | 127° |
| 2026-05-04 13:48 | 33.76970 | 31.89849 | 34919 ft | 544 kts | 128° |
| 2026-05-04 13:49 | 33.72869 | 31.97514 | 34922 ft | 544 kts | 128° |
| 2026-05-04 13:49 | 33.68770 | 32.05161 | 34926 ft | 544 kts | 128° |
| 2026-05-04 13:50 | 33.64694 | 32.12748 | 34930 ft | 544 kts | 128° |
| 2026-05-04 13:50 | 33.60577 | 32.20395 | 34932 ft | 545 kts | 128° |
| 2026-05-04 13:51 | 33.56455 | 32.28035 | 34930 ft | 545 kts | 128° |
| 2026-05-04 13:51 | 33.52335 | 32.35658 | 34556 ft | 541 kts | 128° |
| 2026-05-04 13:52 | 33.48279 | 32.43155 | 33572 ft | 532 kts | 129° |
| 2026-05-04 13:52 | 33.46273 | 32.46855 | 33040 ft | 528 kts | 129° |
| 2026-05-04 13:52 | 33.44302 | 32.50487 | 32525 ft | 524 kts | 129° |
| 2026-05-04 13:53 | 33.42299 | 32.54171 | 32005 ft | 521 kts | 129° |
| 2026-05-04 13:53 | 33.40355 | 32.57743 | 31515 ft | 518 kts | 129° |
| 2026-05-04 13:53 | 33.38390 | 32.61349 | 31016 ft | 515 kts | 130° |
| 2026-05-04 13:54 | 33.34490 | 32.68495 | 30055 ft | 510 kts | 130° |
| 2026-05-04 13:54 | 33.32557 | 32.72033 | 29500 ft | 507 kts | 130° |
| 2026-05-04 13:54 | 33.28751 | 32.79089 | 28423 ft | 503 kts | 128° |
| 2026-05-04 13:55 | 33.26946 | 32.82660 | 27987 ft | 499 kts | 127° |
| 2026-05-04 13:55 | 33.23477 | 32.89707 | 27101 ft | 491 kts | 127° |
| 2026-05-04 13:55 | 33.21751 | 32.93204 | 26674 ft | 487 kts | 127° |
| 2026-05-04 13:56 | 33.20031 | 32.96665 | 26250 ft | 483 kts | 127° |
| 2026-05-04 13:56 | 33.18318 | 33.00088 | 25830 ft | 479 kts | 128° |
| 2026-05-04 13:56 | 33.14779 | 33.07077 | 25061 ft | 510 kts | 127° |
| 2026-05-04 13:57 | 33.12899 | 33.10767 | 24676 ft | 529 kts | 127° |
| 2026-05-04 13:57 | 33.10959 | 33.14583 | 24294 ft | 544 kts | 127° |
| 2026-05-04 13:58 | 33.05110 | 33.26170 | 23029 ft | 537 kts | 126° |
| 2026-05-04 13:58 | 33.01293 | 33.33718 | 22084 ft | 526 kts | 126° |
| 2026-05-04 13:58 | 32.99410 | 33.37424 | 21609 ft | 521 kts | 126° |
| 2026-05-04 13:59 | 32.97538 | 33.41101 | 21144 ft | 516 kts | 126° |
| 2026-05-04 13:59 | 32.95706 | 33.44692 | 20698 ft | 511 kts | 126° |
| 2026-05-04 13:59 | 32.92043 | 33.51862 | 19837 ft | 503 kts | 126° |
| 2026-05-04 14:00 | 32.90200 | 33.55464 | 19416 ft | 500 kts | 126° |
| 2026-05-04 14:00 | 32.86625 | 33.62445 | 18617 ft | 493 kts | 126° |
| 2026-05-04 14:00 | 32.84846 | 33.65914 | 18211 ft | 490 kts | 126° |
| 2026-05-04 14:01 | 32.83073 | 33.69367 | 17752 ft | 487 kts | 126° |
| 2026-05-04 14:01 | 32.81316 | 33.72789 | 17292 ft | 482 kts | 126° |
| 2026-05-04 14:01 | 32.77853 | 33.79522 | 16409 ft | 472 kts | 126° |
| 2026-05-04 14:02 | 32.76147 | 33.82835 | 15976 ft | 468 kts | 126° |
| 2026-05-04 14:02 | 32.74456 | 33.86113 | 15546 ft | 463 kts | 126° |
| 2026-05-04 14:02 | 32.72782 | 33.89359 | 15127 ft | 458 kts | 126° |
| 2026-05-04 14:02 | 32.71127 | 33.92563 | 14709 ft | 454 kts | 126° |
| 2026-05-04 14:03 | 32.69482 | 33.95743 | 14290 ft | 449 kts | 125° |
| 2026-05-04 14:03 | 32.67855 | 33.98888 | 13893 ft | 445 kts | 125° |
| 2026-05-04 14:03 | 32.66242 | 34.02002 | 13445 ft | 441 kts | 125° |
| 2026-05-04 14:03 | 32.64658 | 34.05059 | 13008 ft | 438 kts | 125° |
| 2026-05-04 14:04 | 32.61482 | 34.11178 | 12121 ft | 434 kts | 125° |
| 2026-05-04 14:04 | 32.59900 | 34.14222 | 11689 ft | 431 kts | 125° |
| 2026-05-04 14:04 | 32.58329 | 34.17243 | 11270 ft | 429 kts | 125° |
| 2026-05-04 14:05 | 32.55217 | 34.23222 | 10491 ft | 423 kts | 124° |
| 2026-05-04 14:05 | 32.53669 | 34.26191 | 10246 ft | 423 kts | 124° |
| 2026-05-04 14:05 | 32.52127 | 34.29147 | 10004 ft | 422 kts | 124° |
| 2026-05-04 14:06 | 32.50582 | 34.32106 | 9727 ft | 420 kts | 124° |
| 2026-05-04 14:06 | 32.49049 | 34.35041 | 9449 ft | 417 kts | 124° |
| 2026-05-04 14:06 | 32.48038 | 34.36976 | 9254 ft | 415 kts | 124° |
| 2026-05-04 14:06 | 32.46609 | 34.39708 | 8981 ft | 413 kts | 124° |
| 2026-05-04 14:07 | 32.45101 | 34.42589 | 8700 ft | 411 kts | 124° |
| 2026-05-04 14:07 | 32.43619 | 34.45419 | 8430 ft | 408 kts | 124° |
| 2026-05-04 14:07 | 32.42128 | 34.48263 | 8145 ft | 405 kts | 124° |
| 2026-05-04 14:07 | 32.40647 | 34.51087 | 7860 ft | 403 kts | 124° |
| 2026-05-04 14:08 | 32.39167 | 34.53907 | 7582 ft | 401 kts | 124° |
| 2026-05-04 14:08 | 32.38346 | 34.55468 | 7443 ft | 400 kts | 124° |
| 2026-05-04 14:08 | 32.37060 | 34.57916 | 7201 ft | 397 kts | 124° |
| 2026-05-04 14:08 | 32.35607 | 34.60678 | 6935 ft | 394 kts | 125° |
| 2026-05-04 14:09 | 32.32723 | 34.66156 | 6402 ft | 390 kts | 125° |
| 2026-05-04 14:09 | 32.31293 | 34.68868 | 6119 ft | 388 kts | 125° |
| 2026-05-04 14:10 | 32.28453 | 34.74253 | 5559 ft | 384 kts | 125° |
| 2026-05-04 14:10 | 32.27035 | 34.76937 | 5281 ft | 384 kts | 125° |
| 2026-05-04 14:10 | 32.25627 | 34.79623 | 5009 ft | 385 kts | 122° |
| 2026-05-04 14:10 | 32.24862 | 34.81564 | 4802 ft | 382 kts | 111° |
| 2026-05-04 14:11 | 32.24170 | 34.84503 | 4520 ft | 360 kts | 107° |
| 2026-05-04 14:11 | 32.22856 | 34.89908 | 3929 ft | 326 kts | 109° |
| 2026-05-04 14:11 | 32.22214 | 34.92385 | 3649 ft | 313 kts | 109° |
| 2026-05-04 14:12 | 32.21590 | 34.94769 | 3422 ft | 295 kts | 109° |
| 2026-05-04 14:12 | 32.20790 | 34.96887 | 3113 ft | 272 kts | 131° |
| 2026-05-04 14:12 | 32.17904 | 34.98954 | 2633 ft | 224 kts | 174° |
| 2026-05-04 14:13 | 32.16485 | 34.98913 | 2604 ft | 189 kts | 203° |
| 2026-05-04 14:13 | 32.15283 | 34.98439 | 2597 ft | 178 kts | 209° |
| 2026-05-04 14:13 | 32.14154 | 34.97894 | 2587 ft | 173 kts | 211° |
| 2026-05-04 14:13 | 32.13081 | 34.97278 | 2593 ft | 171 kts | 214° |
| 2026-05-04 14:14 | 32.12014 | 34.96604 | 2415 ft | 177 kts | 216° |
| 2026-05-04 14:14 | 32.09887 | 34.95237 | 1964 ft | 170 kts | 216° |
| 2026-05-04 14:14 | 32.09206 | 34.94798 | 1823 ft | 165 kts | 216° |
| 2026-05-04 14:15 | 32.07081 | 34.93425 | 1407 ft | 142 kts | 216° |
| 2026-05-04 14:15 | 32.05380 | 34.92325 | 977 ft | 132 kts | 215° |
| 2026-05-04 14:16 | 32.04043 | 34.91473 | 745 ft | 127 kts | 215° |
| 2026-05-04 14:16 | 32.03275 | 34.90975 | 528 ft | 125 kts | 216° |
| 2026-05-04 14:17 | 32.01786 | 34.90012 | 161 ft | 120 kts | 217° |
| 2026-05-04 14:17 | 32.01115 | 34.89569 | 121 ft | 90 kts | 211° |
| 2026-05-04 14:17 | 32.00406 | 34.89114 | 117 ft | 46 kts | 208° |
| 2026-05-04 14:18 | 32.00217 | 34.88961 | 117 ft | 27 kts | 227° |
| 2026-05-04 14:18 | 32.00098 | 34.88638 | 117 ft | 18 kts | 298° |
| 2026-05-04 14:19 | 32.00221 | 34.88402 | 118 ft | 16 kts | 302° |
| 2026-05-04 14:19 | 32.00280 | 34.88291 | 116 ft | 16 kts | 302° |
| 2026-05-04 14:19 | 32.00334 | 34.88185 | 117 ft | 15 kts | 300° |
| 2026-05-04 14:19 | 32.00387 | 34.88082 | 115 ft | 14 kts | 301° |
| 2026-05-04 14:20 | 32.00439 | 34.87984 | 117 ft | 14 kts | 302° |
| 2026-05-04 14:20 | 32.00485 | 34.87894 | 117 ft | 9 kts | 300° |
| 2026-05-04 14:20 | 32.00465 | 34.87831 | 119 ft | 9 kts | 211° |
| 2026-05-04 14:21 | 32.00358 | 34.87754 | 119 ft | 9 kts | 211° |
| 2026-05-04 14:21 | 32.00307 | 34.87718 | 118 ft | 8 kts | 211° |
| 2026-05-04 14:21 | 32.00254 | 34.87680 | 119 ft | 9 kts | 211° |
| 2026-05-04 14:21 | 32.00203 | 34.87640 | 117 ft | 9 kts | 228° |
| 2026-05-04 14:22 | 32.00215 | 34.87577 | 115 ft | 9 kts | 303° |
| 2026-05-04 14:22 | 32.00242 | 34.87530 | 117 ft | 5 kts | 312° |
| 2026-05-04 14:22 | 32.00269 | 34.87516 | 116 ft | 1 kts | 342° |
| 2026-05-04 14:22 | 32.00280 | 34.87512 | 116 ft | 2 kts | 343° |
| 2026-05-04 14:23 | 32.00298 | 34.87506 | 118 ft | 1 kts | 344° |
| 2026-05-04 14:23 | 32.00299 | 34.87505 | 118 ft | 0 kts | 344° |